sensor_id;sensor_type;location;lat;lon;timestamp;P1;durP1;ratioP1;P2;durP2;ratioP2
47455;SDS011;33202;48.512;-2.780;2023-02-15T00:01:21;18.15;;;11.93;;
47455;SDS011;33202;48.512;-2.780;2023-02-15T00:03:48;18.27;;;12.50;;
47455;SDS011;33202;48.512;-2.780;2023-02-15T00:06:14;19.63;;;12.80;;
47455;SDS011;33202;48.512;-2.780;2023-02-15T00:08:40;18.50;;;12.95;;
47455;SDS011;33202;48.512;-2.780;2023-02-15T00:11:07;19.52;;;12.43;;
47455;SDS011;33202;48.512;-2.780;2023-02-15T00:13:33;20.15;;;13.30;;
47455;SDS011;33202;48.512;-2.780;2023-02-15T00:16:04;15.85;;;11.65;;
47455;SDS011;33202;48.512;-2.780;2023-02-15T00:18:31;16.48;;;11.30;;
47455;SDS011;33202;48.512;-2.780;2023-02-15T00:20:57;19.88;;;12.32;;
47455;SDS011;33202;48.512;-2.780;2023-02-15T00:23:24;16.88;;;12.13;;
47455;SDS011;33202;48.512;-2.780;2023-02-15T00:25:52;17.85;;;11.48;;
47455;SDS011;33202;48.512;-2.780;2023-02-15T00:28:18;18.85;;;11.93;;
47455;SDS011;33202;48.512;-2.780;2023-02-15T00:30:44;18.05;;;11.98;;
47455;SDS011;33202;48.512;-2.780;2023-02-15T00:33:10;17.38;;;11.70;;
47455;SDS011;33202;48.512;-2.780;2023-02-15T00:35:35;16.77;;;11.73;;
47455;SDS011;33202;48.512;-2.780;2023-02-15T00:38:01;15.45;;;11.32;;
47455;SDS011;33202;48.512;-2.780;2023-02-15T00:40:27;16.42;;;11.68;;
47455;SDS011;33202;48.512;-2.780;2023-02-15T00:42:53;16.42;;;11.18;;
47455;SDS011;33202;48.512;-2.780;2023-02-15T00:45:19;17.10;;;11.10;;
47455;SDS011;33202;48.512;-2.780;2023-02-15T00:47:46;16.98;;;10.95;;
47455;SDS011;33202;48.512;-2.780;2023-02-15T00:50:12;16.10;;;11.18;;
47455;SDS011;33202;48.512;-2.780;2023-02-15T00:52:38;17.98;;;11.77;;
47455;SDS011;33202;48.512;-2.780;2023-02-15T00:55:04;15.60;;;10.73;;
47455;SDS011;33202;48.512;-2.780;2023-02-15T00:57:30;15.77;;;11.20;;
47455;SDS011;33202;48.512;-2.780;2023-02-15T00:59:56;18.75;;;11.18;;
47455;SDS011;33202;48.512;-2.780;2023-02-15T01:02:22;15.37;;;11.67;;
47455;SDS011;33202;48.512;-2.780;2023-02-15T01:04:48;13.32;;;10.05;;
47455;SDS011;33202;48.512;-2.780;2023-02-15T01:07:14;15.50;;;11.02;;
47455;SDS011;33202;48.512;-2.780;2023-02-15T01:09:40;15.25;;;10.82;;
47455;SDS011;33202;48.512;-2.780;2023-02-15T01:12:06;15.23;;;10.35;;
47455;SDS011;33202;48.512;-2.780;2023-02-15T01:14:33;14.63;;;10.57;;
47455;SDS011;33202;48.512;-2.780;2023-02-15T01:16:59;15.57;;;10.80;;
47455;SDS011;33202;48.512;-2.780;2023-02-15T01:19:25;13.65;;;10.10;;
47455;SDS011;33202;48.512;-2.780;2023-02-15T01:21:51;14.80;;;10.82;;
47455;SDS011;33202;48.512;-2.780;2023-02-15T01:24:17;13.13;;;10.25;;
47455;SDS011;33202;48.512;-2.780;2023-02-15T01:26:43;16.25;;;10.82;;
47455;SDS011;33202;48.512;-2.780;2023-02-15T01:29:09;17.40;;;11.25;;
47455;SDS011;33202;48.512;-2.780;2023-02-15T01:31:35;16.15;;;10.25;;
47455;SDS011;33202;48.512;-2.780;2023-02-15T01:34:03;16.00;;;10.55;;
47455;SDS011;33202;48.512;-2.780;2023-02-15T01:36:29;14.45;;;10.98;;
47455;SDS011;33202;48.512;-2.780;2023-02-15T01:38:56;16.00;;;11.10;;
47455;SDS011;33202;48.512;-2.780;2023-02-15T01:41:22;15.38;;;11.10;;
47455;SDS011;33202;48.512;-2.780;2023-02-15T01:43:52;15.00;;;11.45;;
47455;SDS011;33202;48.512;-2.780;2023-02-15T01:46:43;16.27;;;11.27;;
47455;SDS011;33202;48.512;-2.780;2023-02-15T01:49:11;14.48;;;10.55;;
47455;SDS011;33202;48.512;-2.780;2023-02-15T01:51:38;15.63;;;10.90;;
47455;SDS011;33202;48.512;-2.780;2023-02-15T01:54:24;15.88;;;10.80;;
47455;SDS011;33202;48.512;-2.780;2023-02-15T01:56:52;16.73;;;10.57;;
47455;SDS011;33202;48.512;-2.780;2023-02-15T01:59:20;14.98;;;10.63;;
47455;SDS011;33202;48.512;-2.780;2023-02-15T02:06:39;12.65;;;10.10;;
47455;SDS011;33202;48.512;-2.780;2023-02-15T02:09:06;14.80;;;10.63;;
47455;SDS011;33202;48.512;-2.780;2023-02-15T02:11:32;14.00;;;10.43;;
47455;SDS011;33202;48.512;-2.780;2023-02-15T02:13:58;13.50;;;9.97;;
47455;SDS011;33202;48.512;-2.780;2023-02-15T02:16:37;13.57;;;10.18;;
47455;SDS011;33202;48.512;-2.780;2023-02-15T02:34:48;14.07;;;10.77;;
47455;SDS011;33202;48.512;-2.780;2023-02-15T02:40:13;15.10;;;10.90;;
47455;SDS011;33202;48.512;-2.780;2023-02-15T02:42:43;15.10;;;11.00;;
47455;SDS011;33202;48.512;-2.780;2023-02-15T02:45:15;14.25;;;10.88;;
47455;SDS011;33202;48.512;-2.780;2023-02-15T02:47:48;17.27;;;11.48;;
47455;SDS011;33202;48.512;-2.780;2023-02-15T02:50:17;16.15;;;11.48;;
47455;SDS011;33202;48.512;-2.780;2023-02-15T02:55:17;15.25;;;11.15;;
47455;SDS011;33202;48.512;-2.780;2023-02-15T02:57:52;16.73;;;11.55;;
47455;SDS011;33202;48.512;-2.780;2023-02-15T03:00:19;14.52;;;10.40;;
47455;SDS011;33202;48.512;-2.780;2023-02-15T03:02:47;14.02;;;10.43;;
47455;SDS011;33202;48.512;-2.780;2023-02-15T03:05:15;15.65;;;10.70;;
47455;SDS011;33202;48.512;-2.780;2023-02-15T03:07:42;14.70;;;10.13;;
47455;SDS011;33202;48.512;-2.780;2023-02-15T03:10:08;13.98;;;10.30;;
47455;SDS011;33202;48.512;-2.780;2023-02-15T03:12:36;14.50;;;10.80;;
47455;SDS011;33202;48.512;-2.780;2023-02-15T03:15:22;15.40;;;10.90;;
47455;SDS011;33202;48.512;-2.780;2023-02-15T03:17:54;16.45;;;11.15;;
47455;SDS011;33202;48.512;-2.780;2023-02-15T03:20:26;14.60;;;11.02;;
47455;SDS011;33202;48.512;-2.780;2023-02-15T03:22:55;13.65;;;10.70;;
47455;SDS011;33202;48.512;-2.780;2023-02-15T03:25:40;16.55;;;10.80;;
47455;SDS011;33202;48.512;-2.780;2023-02-15T03:28:07;15.02;;;11.77;;
47455;SDS011;33202;48.512;-2.780;2023-02-15T03:30:34;18.08;;;11.23;;
47455;SDS011;33202;48.512;-2.780;2023-02-15T03:33:01;16.00;;;11.52;;
47455;SDS011;33202;48.512;-2.780;2023-02-15T03:35:33;16.88;;;11.27;;
47455;SDS011;33202;48.512;-2.780;2023-02-15T03:38:02;15.32;;;11.07;;
47455;SDS011;33202;48.512;-2.780;2023-02-15T03:40:29;16.33;;;11.40;;
47455;SDS011;33202;48.512;-2.780;2023-02-15T03:44:04;15.57;;;11.50;;
47455;SDS011;33202;48.512;-2.780;2023-02-15T03:46:05;15.00;;;11.50;;
47455;SDS011;33202;48.512;-2.780;2023-02-15T03:48:36;15.98;;;10.98;;
47455;SDS011;33202;48.512;-2.780;2023-02-15T03:51:05;14.82;;;10.98;;
47455;SDS011;33202;48.512;-2.780;2023-02-15T03:53:50;15.77;;;11.45;;
47455;SDS011;33202;48.512;-2.780;2023-02-15T03:56:18;15.60;;;11.23;;
47455;SDS011;33202;48.512;-2.780;2023-02-15T03:58:44;16.85;;;12.00;;
47455;SDS011;33202;48.512;-2.780;2023-02-15T04:01:50;16.25;;;11.15;;
47455;SDS011;33202;48.512;-2.780;2023-02-15T04:06:50;14.50;;;10.90;;
47455;SDS011;33202;48.512;-2.780;2023-02-15T04:09:16;15.73;;;11.90;;
47455;SDS011;33202;48.512;-2.780;2023-02-15T04:12:01;16.13;;;11.88;;
47455;SDS011;33202;48.512;-2.780;2023-02-15T04:14:27;16.20;;;11.18;;
47455;SDS011;33202;48.512;-2.780;2023-02-15T04:17:11;14.48;;;10.73;;
47455;SDS011;33202;48.512;-2.780;2023-02-15T04:19:37;15.27;;;10.85;;
47455;SDS011;33202;48.512;-2.780;2023-02-15T04:22:22;15.27;;;11.07;;
47455;SDS011;33202;48.512;-2.780;2023-02-15T04:25:06;13.60;;;10.65;;
47455;SDS011;33202;48.512;-2.780;2023-02-15T04:27:36;17.10;;;10.93;;
47455;SDS011;33202;48.512;-2.780;2023-02-15T04:30:02;15.23;;;10.82;;
47455;SDS011;33202;48.512;-2.780;2023-02-15T04:32:28;14.45;;;11.05;;
47455;SDS011;33202;48.512;-2.780;2023-02-15T04:34:54;15.82;;;10.75;;
47455;SDS011;33202;48.512;-2.780;2023-02-15T04:37:20;14.25;;;10.82;;
47455;SDS011;33202;48.512;-2.780;2023-02-15T04:39:46;17.05;;;11.32;;
47455;SDS011;33202;48.512;-2.780;2023-02-15T04:42:12;16.92;;;11.68;;
47455;SDS011;33202;48.512;-2.780;2023-02-15T04:44:38;16.23;;;10.60;;
47455;SDS011;33202;48.512;-2.780;2023-02-15T04:47:04;15.98;;;11.00;;
47455;SDS011;33202;48.512;-2.780;2023-02-15T04:49:30;15.10;;;10.90;;
47455;SDS011;33202;48.512;-2.780;2023-02-15T04:51:56;15.32;;;11.15;;
47455;SDS011;33202;48.512;-2.780;2023-02-15T04:54:22;14.40;;;10.85;;
47455;SDS011;33202;48.512;-2.780;2023-02-15T04:56:48;14.70;;;10.63;;
47455;SDS011;33202;48.512;-2.780;2023-02-15T04:59:14;15.57;;;10.43;;
47455;SDS011;33202;48.512;-2.780;2023-02-15T05:01:40;15.45;;;10.35;;
47455;SDS011;33202;48.512;-2.780;2023-02-15T05:04:06;15.15;;;10.15;;
47455;SDS011;33202;48.512;-2.780;2023-02-15T05:06:33;13.52;;;10.07;;
47455;SDS011;33202;48.512;-2.780;2023-02-15T05:08:59;13.75;;;10.07;;
47455;SDS011;33202;48.512;-2.780;2023-02-15T05:11:25;13.05;;;9.48;;
47455;SDS011;33202;48.512;-2.780;2023-02-15T05:13:51;15.60;;;11.00;;
47455;SDS011;33202;48.512;-2.780;2023-02-15T05:16:17;13.50;;;10.07;;
47455;SDS011;33202;48.512;-2.780;2023-02-15T05:18:43;15.02;;;9.88;;
47455;SDS011;33202;48.512;-2.780;2023-02-15T05:21:09;16.42;;;10.70;;
47455;SDS011;33202;48.512;-2.780;2023-02-15T05:23:35;16.45;;;10.57;;
47455;SDS011;33202;48.512;-2.780;2023-02-15T05:26:01;17.15;;;11.00;;
47455;SDS011;33202;48.512;-2.780;2023-02-15T05:28:46;17.80;;;11.43;;
47455;SDS011;33202;48.512;-2.780;2023-02-15T05:31:13;16.38;;;11.13;;
47455;SDS011;33202;48.512;-2.780;2023-02-15T05:33:40;16.63;;;11.32;;
47455;SDS011;33202;48.512;-2.780;2023-02-15T05:36:06;15.85;;;11.10;;
47455;SDS011;33202;48.512;-2.780;2023-02-15T05:38:33;18.37;;;11.83;;
47455;SDS011;33202;48.512;-2.780;2023-02-15T05:40:59;15.90;;;11.10;;
47455;SDS011;33202;48.512;-2.780;2023-02-15T05:43:25;16.33;;;11.35;;
47455;SDS011;33202;48.512;-2.780;2023-02-15T05:45:52;17.30;;;11.27;;
47455;SDS011;33202;48.512;-2.780;2023-02-15T05:48:18;14.88;;;11.10;;
47455;SDS011;33202;48.512;-2.780;2023-02-15T05:50:44;16.10;;;10.95;;
47455;SDS011;33202;48.512;-2.780;2023-02-15T05:53:11;17.05;;;11.52;;
47455;SDS011;33202;48.512;-2.780;2023-02-15T05:55:40;16.63;;;11.60;;
47455;SDS011;33202;48.512;-2.780;2023-02-15T05:58:06;15.20;;;10.77;;
47455;SDS011;33202;48.512;-2.780;2023-02-15T06:00:33;17.17;;;11.27;;
47455;SDS011;33202;48.512;-2.780;2023-02-15T06:02:59;17.45;;;11.40;;
47455;SDS011;33202;48.512;-2.780;2023-02-15T06:05:25;16.27;;;12.13;;
47455;SDS011;33202;48.512;-2.780;2023-02-15T06:07:51;16.42;;;11.93;;
47455;SDS011;33202;48.512;-2.780;2023-02-15T06:10:17;15.57;;;11.23;;
47455;SDS011;33202;48.512;-2.780;2023-02-15T06:12:44;16.55;;;12.05;;
47455;SDS011;33202;48.512;-2.780;2023-02-15T06:15:10;17.52;;;12.15;;
47455;SDS011;33202;48.512;-2.780;2023-02-15T06:17:36;17.00;;;11.27;;
47455;SDS011;33202;48.512;-2.780;2023-02-15T06:20:02;16.73;;;11.68;;
47455;SDS011;33202;48.512;-2.780;2023-02-15T06:22:28;15.50;;;11.23;;
47455;SDS011;33202;48.512;-2.780;2023-02-15T06:24:54;15.25;;;11.23;;
47455;SDS011;33202;48.512;-2.780;2023-02-15T06:27:20;16.80;;;11.38;;
47455;SDS011;33202;48.512;-2.780;2023-02-15T06:29:46;13.85;;;10.57;;
47455;SDS011;33202;48.512;-2.780;2023-02-15T06:32:12;14.05;;;9.73;;
47455;SDS011;33202;48.512;-2.780;2023-02-15T06:34:38;16.75;;;11.48;;
47455;SDS011;33202;48.512;-2.780;2023-02-15T06:37:04;17.05;;;11.57;;
47455;SDS011;33202;48.512;-2.780;2023-02-15T06:39:32;18.08;;;11.23;;
47455;SDS011;33202;48.512;-2.780;2023-02-15T06:41:58;16.25;;;11.70;;
47455;SDS011;33202;48.512;-2.780;2023-02-15T06:44:24;15.10;;;11.80;;
47455;SDS011;33202;48.512;-2.780;2023-02-15T06:46:51;22.15;;;12.48;;
47455;SDS011;33202;48.512;-2.780;2023-02-15T06:49:17;16.20;;;12.77;;
47455;SDS011;33202;48.512;-2.780;2023-02-15T06:51:43;16.17;;;11.63;;
47455;SDS011;33202;48.512;-2.780;2023-02-15T06:54:09;16.50;;;12.57;;
47455;SDS011;33202;48.512;-2.780;2023-02-15T06:56:34;16.23;;;11.68;;
47455;SDS011;33202;48.512;-2.780;2023-02-15T06:59:01;16.15;;;12.13;;
47455;SDS011;33202;48.512;-2.780;2023-02-15T07:01:28;17.85;;;12.25;;
47455;SDS011;33202;48.512;-2.780;2023-02-15T07:06:25;18.77;;;12.77;;
47455;SDS011;33202;48.512;-2.780;2023-02-15T07:08:51;20.88;;;12.35;;
47455;SDS011;33202;48.512;-2.780;2023-02-15T07:11:17;19.35;;;13.63;;
47455;SDS011;33202;48.512;-2.780;2023-02-15T07:14:01;19.02;;;12.85;;
47455;SDS011;33202;48.512;-2.780;2023-02-15T07:16:27;18.00;;;12.48;;
47455;SDS011;33202;48.512;-2.780;2023-02-15T07:18:53;18.83;;;12.68;;
47455;SDS011;33202;48.512;-2.780;2023-02-15T07:21:19;18.33;;;12.63;;
47455;SDS011;33202;48.512;-2.780;2023-02-15T07:23:45;17.05;;;12.55;;
47455;SDS011;33202;48.512;-2.780;2023-02-15T07:26:11;21.67;;;13.23;;
47455;SDS011;33202;48.512;-2.780;2023-02-15T07:28:37;16.85;;;12.55;;
47455;SDS011;33202;48.512;-2.780;2023-02-15T07:31:03;18.33;;;12.02;;
47455;SDS011;33202;48.512;-2.780;2023-02-15T07:33:33;18.52;;;12.70;;
47455;SDS011;33202;48.512;-2.780;2023-02-15T07:36:01;16.35;;;11.85;;
47455;SDS011;33202;48.512;-2.780;2023-02-15T07:38:33;18.98;;;13.00;;
47455;SDS011;33202;48.512;-2.780;2023-02-15T07:41:10;18.83;;;12.68;;
47455;SDS011;33202;48.512;-2.780;2023-02-15T07:43:37;20.63;;;12.95;;
47455;SDS011;33202;48.512;-2.780;2023-02-15T07:46:06;21.02;;;14.20;;
47455;SDS011;33202;48.512;-2.780;2023-02-15T07:50:59;19.30;;;12.80;;
47455;SDS011;33202;48.512;-2.780;2023-02-15T07:53:25;19.50;;;12.85;;
47455;SDS011;33202;48.512;-2.780;2023-02-15T07:55:51;20.95;;;13.55;;
47455;SDS011;33202;48.512;-2.780;2023-02-15T07:58:17;18.60;;;13.02;;
47455;SDS011;33202;48.512;-2.780;2023-02-15T08:00:43;18.50;;;12.93;;
47455;SDS011;33202;48.512;-2.780;2023-02-15T08:03:22;19.13;;;13.38;;
47455;SDS011;33202;48.512;-2.780;2023-02-15T08:05:51;19.50;;;12.98;;
47455;SDS011;33202;48.512;-2.780;2023-02-15T08:08:17;19.48;;;13.73;;
47455;SDS011;33202;48.512;-2.780;2023-02-15T08:13:41;19.27;;;12.30;;
47455;SDS011;33202;48.512;-2.780;2023-02-15T08:16:18;20.08;;;14.38;;
47455;SDS011;33202;48.512;-2.780;2023-02-15T08:18:44;17.40;;;13.55;;
47455;SDS011;33202;48.512;-2.780;2023-02-15T08:21:10;18.92;;;13.98;;
47455;SDS011;33202;48.512;-2.780;2023-02-15T08:23:37;20.47;;;14.67;;
47455;SDS011;33202;48.512;-2.780;2023-02-15T08:26:03;23.13;;;15.68;;
47455;SDS011;33202;48.512;-2.780;2023-02-15T08:28:29;18.70;;;14.93;;
47455;SDS011;33202;48.512;-2.780;2023-02-15T08:30:56;23.00;;;15.70;;
47455;SDS011;33202;48.512;-2.780;2023-02-15T08:33:29;19.45;;;14.15;;
47455;SDS011;33202;48.512;-2.780;2023-02-15T08:35:55;20.63;;;14.77;;
47455;SDS011;33202;48.512;-2.780;2023-02-15T08:38:21;18.27;;;13.65;;
47455;SDS011;33202;48.512;-2.780;2023-02-15T08:40:47;22.13;;;14.32;;
47455;SDS011;33202;48.512;-2.780;2023-02-15T08:43:13;18.55;;;13.15;;
47455;SDS011;33202;48.512;-2.780;2023-02-15T08:45:39;18.52;;;13.02;;
47455;SDS011;33202;48.512;-2.780;2023-02-15T08:48:05;19.92;;;13.65;;
47455;SDS011;33202;48.512;-2.780;2023-02-15T08:50:31;21.27;;;13.70;;
47455;SDS011;33202;48.512;-2.780;2023-02-15T08:52:57;17.83;;;13.85;;
47455;SDS011;33202;48.512;-2.780;2023-02-15T08:55:23;21.40;;;13.70;;
47455;SDS011;33202;48.512;-2.780;2023-02-15T08:57:49;23.20;;;14.07;;
47455;SDS011;33202;48.512;-2.780;2023-02-15T09:00:15;19.63;;;13.80;;
47455;SDS011;33202;48.512;-2.780;2023-02-15T09:02:42;17.23;;;12.35;;
47455;SDS011;33202;48.512;-2.780;2023-02-15T09:05:08;20.23;;;13.75;;
47455;SDS011;33202;48.512;-2.780;2023-02-15T09:07:34;19.67;;;13.60;;
47455;SDS011;33202;48.512;-2.780;2023-02-15T09:10:00;20.50;;;13.20;;
47455;SDS011;33202;48.512;-2.780;2023-02-15T09:12:26;19.77;;;13.57;;
47455;SDS011;33202;48.512;-2.780;2023-02-15T09:14:52;20.17;;;14.38;;
47455;SDS011;33202;48.512;-2.780;2023-02-15T09:17:18;19.85;;;13.80;;
47455;SDS011;33202;48.512;-2.780;2023-02-15T09:19:44;19.80;;;13.73;;
47455;SDS011;33202;48.512;-2.780;2023-02-15T09:22:10;22.48;;;14.90;;
47455;SDS011;33202;48.512;-2.780;2023-02-15T09:24:36;22.05;;;13.82;;
47455;SDS011;33202;48.512;-2.780;2023-02-15T09:27:02;18.50;;;13.48;;
47455;SDS011;33202;48.512;-2.780;2023-02-15T09:29:28;25.25;;;15.73;;
47455;SDS011;33202;48.512;-2.780;2023-02-15T09:31:54;24.70;;;15.73;;
47455;SDS011;33202;48.512;-2.780;2023-02-15T09:34:21;17.70;;;12.98;;
47455;SDS011;33202;48.512;-2.780;2023-02-15T09:36:47;22.27;;;14.07;;
47455;SDS011;33202;48.512;-2.780;2023-02-15T09:39:15;19.92;;;14.55;;
47455;SDS011;33202;48.512;-2.780;2023-02-15T09:46:53;19.15;;;12.98;;
47455;SDS011;33202;48.512;-2.780;2023-02-15T09:55:09;18.30;;;12.70;;
47455;SDS011;33202;48.512;-2.780;2023-02-15T09:57:19;19.15;;;11.98;;
47455;SDS011;33202;48.512;-2.780;2023-02-15T10:10:01;17.27;;;12.30;;
47455;SDS011;33202;48.512;-2.780;2023-02-15T10:15:19;19.85;;;12.73;;
47455;SDS011;33202;48.512;-2.780;2023-02-15T10:27:46;18.52;;;12.55;;
47455;SDS011;33202;48.512;-2.780;2023-02-15T10:30:13;17.67;;;12.93;;
47455;SDS011;33202;48.512;-2.780;2023-02-15T11:03:29;12.80;;;8.95;;
47455;SDS011;33202;48.512;-2.780;2023-02-15T11:06:03;16.90;;;9.25;;
47455;SDS011;33202;48.512;-2.780;2023-02-15T11:08:31;12.38;;;9.20;;
47455;SDS011;33202;48.512;-2.780;2023-02-15T11:10:59;11.25;;;8.30;;
47455;SDS011;33202;48.512;-2.780;2023-02-15T11:13:27;16.00;;;8.40;;
47455;SDS011;33202;48.512;-2.780;2023-02-15T11:16:10;18.50;;;8.07;;
47455;SDS011;33202;48.512;-2.780;2023-02-15T11:18:39;11.45;;;7.90;;
47455;SDS011;33202;48.512;-2.780;2023-02-15T11:23:32;11.05;;;7.53;;
47455;SDS011;33202;48.512;-2.780;2023-02-15T11:26:02;12.18;;;8.00;;
47455;SDS011;33202;48.512;-2.780;2023-02-15T11:28:37;10.43;;;7.60;;
47455;SDS011;33202;48.512;-2.780;2023-02-15T11:31:42;11.90;;;8.43;;
47455;SDS011;33202;48.512;-2.780;2023-02-15T11:33:58;13.63;;;8.15;;
47455;SDS011;33202;48.512;-2.780;2023-02-15T11:36:27;10.43;;;7.88;;
47455;SDS011;33202;48.512;-2.780;2023-02-15T11:39:05;12.07;;;7.80;;
47455;SDS011;33202;48.512;-2.780;2023-02-15T11:41:35;11.75;;;7.82;;
47455;SDS011;33202;48.512;-2.780;2023-02-15T11:46:28;15.80;;;8.27;;
47455;SDS011;33202;48.512;-2.780;2023-02-15T11:48:54;13.50;;;7.47;;
47455;SDS011;33202;48.512;-2.780;2023-02-15T11:51:21;12.82;;;7.07;;
47455;SDS011;33202;48.512;-2.780;2023-02-15T11:53:48;14.80;;;7.55;;
47455;SDS011;33202;48.512;-2.780;2023-02-15T11:56:24;9.52;;;6.80;;
47455;SDS011;33202;48.512;-2.780;2023-02-15T12:01:25;9.35;;;6.40;;
47455;SDS011;33202;48.512;-2.780;2023-02-15T12:03:55;8.98;;;5.97;;
47455;SDS011;33202;48.512;-2.780;2023-02-15T12:06:24;9.18;;;5.97;;
47455;SDS011;33202;48.512;-2.780;2023-02-15T12:08:52;15.05;;;8.10;;
47455;SDS011;33202;48.512;-2.780;2023-02-15T12:11:20;9.90;;;6.28;;
47455;SDS011;33202;48.512;-2.780;2023-02-15T12:13:59;8.88;;;6.45;;
47455;SDS011;33202;48.512;-2.780;2023-02-15T12:16:25;9.55;;;6.07;;
47455;SDS011;33202;48.512;-2.780;2023-02-15T12:18:54;10.77;;;5.95;;
47455;SDS011;33202;48.512;-2.780;2023-02-15T12:21:25;8.85;;;6.03;;
47455;SDS011;33202;48.512;-2.780;2023-02-15T12:23:52;9.25;;;5.85;;
47455;SDS011;33202;48.512;-2.780;2023-02-15T12:28:51;9.02;;;5.63;;
47455;SDS011;33202;48.512;-2.780;2023-02-15T12:31:23;10.02;;;6.00;;
47455;SDS011;33202;48.512;-2.780;2023-02-15T12:33:54;9.10;;;6.28;;
47455;SDS011;33202;48.512;-2.780;2023-02-15T12:36:22;9.13;;;6.10;;
47455;SDS011;33202;48.512;-2.780;2023-02-15T12:41:34;9.90;;;6.72;;
47455;SDS011;33202;48.512;-2.780;2023-02-15T12:44:05;10.20;;;7.30;;
47455;SDS011;33202;48.512;-2.780;2023-02-15T12:46:32;10.68;;;7.47;;
47455;SDS011;33202;48.512;-2.780;2023-02-15T12:49:40;11.23;;;7.50;;
47455;SDS011;33202;48.512;-2.780;2023-02-15T12:51:49;9.07;;;6.95;;
47455;SDS011;33202;48.512;-2.780;2023-02-15T12:54:32;12.27;;;6.57;;
47455;SDS011;33202;48.512;-2.780;2023-02-15T12:57:01;11.20;;;7.20;;
47455;SDS011;33202;48.512;-2.780;2023-02-15T12:59:46;8.80;;;6.35;;
47455;SDS011;33202;48.512;-2.780;2023-02-15T13:02:47;10.02;;;6.97;;
47455;SDS011;33202;48.512;-2.780;2023-02-15T13:05:10;10.30;;;6.90;;
47455;SDS011;33202;48.512;-2.780;2023-02-15T13:07:44;9.13;;;6.15;;
47455;SDS011;33202;48.512;-2.780;2023-02-15T13:10:24;12.02;;;5.90;;
47455;SDS011;33202;48.512;-2.780;2023-02-15T13:12:51;9.18;;;6.00;;
47455;SDS011;33202;48.512;-2.780;2023-02-15T13:15:23;8.93;;;6.25;;
47455;SDS011;33202;48.512;-2.780;2023-02-15T13:17:50;9.55;;;6.43;;
47455;SDS011;33202;48.512;-2.780;2023-02-15T13:20:18;9.27;;;6.35;;
47455;SDS011;33202;48.512;-2.780;2023-02-15T13:22:46;11.85;;;6.07;;
47455;SDS011;33202;48.512;-2.780;2023-02-15T13:25:22;7.32;;;5.65;;
47455;SDS011;33202;48.512;-2.780;2023-02-15T13:27:54;10.77;;;5.90;;
47455;SDS011;33202;48.512;-2.780;2023-02-15T13:30:34;9.85;;;5.70;;
47455;SDS011;33202;48.512;-2.780;2023-02-15T13:35:34;9.60;;;5.88;;
47455;SDS011;33202;48.512;-2.780;2023-02-15T13:43:17;11.25;;;5.90;;
47455;SDS011;33202;48.512;-2.780;2023-02-15T13:48:20;10.93;;;5.97;;
47455;SDS011;33202;48.512;-2.780;2023-02-15T13:56:21;11.18;;;6.10;;
47455;SDS011;33202;48.512;-2.780;2023-02-15T14:01:31;12.65;;;6.88;;
47455;SDS011;33202;48.512;-2.780;2023-02-15T14:06:56;7.72;;;5.47;;
47455;SDS011;33202;48.512;-2.780;2023-02-15T14:14:29;19.98;;;8.70;;
47455;SDS011;33202;48.512;-2.780;2023-02-15T14:17:01;13.73;;;8.30;;
47455;SDS011;33202;48.512;-2.780;2023-02-15T14:19:31;16.48;;;10.50;;
47455;SDS011;33202;48.512;-2.780;2023-02-15T14:22:04;17.17;;;10.45;;
47455;SDS011;33202;48.512;-2.780;2023-02-15T14:27:34;15.23;;;11.07;;
47455;SDS011;33202;48.512;-2.780;2023-02-15T14:30:15;18.55;;;11.48;;
47455;SDS011;33202;48.512;-2.780;2023-02-15T14:32:54;18.63;;;11.43;;
47455;SDS011;33202;48.512;-2.780;2023-02-15T14:35:22;16.02;;;10.75;;
47455;SDS011;33202;48.512;-2.780;2023-02-15T14:37:55;22.02;;;11.20;;
47455;SDS011;33202;48.512;-2.780;2023-02-15T14:43:10;16.52;;;11.30;;
47455;SDS011;33202;48.512;-2.780;2023-02-15T14:51:06;16.70;;;12.00;;
47455;SDS011;33202;48.512;-2.780;2023-02-15T14:53:33;19.08;;;11.68;;
47455;SDS011;33202;48.512;-2.780;2023-02-15T14:59:23;19.17;;;11.77;;
47455;SDS011;33202;48.512;-2.780;2023-02-15T15:01:28;17.15;;;11.30;;
47455;SDS011;33202;48.512;-2.780;2023-02-15T15:03:57;17.50;;;11.80;;
47455;SDS011;33202;48.512;-2.780;2023-02-15T15:06:25;19.65;;;12.50;;
47455;SDS011;33202;48.512;-2.780;2023-02-15T15:08:51;17.70;;;11.90;;
47455;SDS011;33202;48.512;-2.780;2023-02-15T15:13:56;18.63;;;11.43;;
47455;SDS011;33202;48.512;-2.780;2023-02-15T15:16:46;16.67;;;10.93;;
47455;SDS011;33202;48.512;-2.780;2023-02-15T15:19:12;17.98;;;11.27;;
47455;SDS011;33202;48.512;-2.780;2023-02-15T15:22:02;28.40;;;16.02;;
47455;SDS011;33202;48.512;-2.780;2023-02-15T15:24:45;19.35;;;12.80;;
47455;SDS011;33202;48.512;-2.780;2023-02-15T15:29:56;19.23;;;13.13;;
47455;SDS011;33202;48.512;-2.780;2023-02-15T15:32:22;17.15;;;12.35;;
47455;SDS011;33202;48.512;-2.780;2023-02-15T15:37:46;17.15;;;11.73;;
47455;SDS011;33202;48.512;-2.780;2023-02-15T15:50:52;18.60;;;12.00;;
47455;SDS011;33202;48.512;-2.780;2023-02-15T15:53:22;16.52;;;11.73;;
47455;SDS011;33202;48.512;-2.780;2023-02-15T15:55:49;19.98;;;12.63;;
47455;SDS011;33202;48.512;-2.780;2023-02-15T15:58:16;19.85;;;12.52;;
47455;SDS011;33202;48.512;-2.780;2023-02-15T16:00:47;18.63;;;12.73;;
47455;SDS011;33202;48.512;-2.780;2023-02-15T16:03:15;18.33;;;12.68;;
47455;SDS011;33202;48.512;-2.780;2023-02-15T16:05:42;16.77;;;12.95;;
47455;SDS011;33202;48.512;-2.780;2023-02-15T16:08:08;18.92;;;12.75;;
47455;SDS011;33202;48.512;-2.780;2023-02-15T16:10:34;24.30;;;13.18;;
47455;SDS011;33202;48.512;-2.780;2023-02-15T16:13:02;19.77;;;12.52;;
47455;SDS011;33202;48.512;-2.780;2023-02-15T16:15:36;21.23;;;12.18;;
47455;SDS011;33202;48.512;-2.780;2023-02-15T16:18:02;15.10;;;12.05;;
47455;SDS011;33202;48.512;-2.780;2023-02-15T16:20:32;16.30;;;11.60;;
47455;SDS011;33202;48.512;-2.780;2023-02-15T16:28:07;17.88;;;11.73;;
47455;SDS011;33202;48.512;-2.780;2023-02-15T16:30:34;18.13;;;12.13;;
47455;SDS011;33202;48.512;-2.780;2023-02-15T16:35:30;18.58;;;12.07;;
47455;SDS011;33202;48.512;-2.780;2023-02-15T16:37:56;15.65;;;12.10;;
47455;SDS011;33202;48.512;-2.780;2023-02-15T16:42:49;16.85;;;11.93;;
47455;SDS011;33202;48.512;-2.780;2023-02-15T16:45:16;15.98;;;11.75;;
47455;SDS011;33202;48.512;-2.780;2023-02-15T16:47:44;18.48;;;12.57;;
47455;SDS011;33202;48.512;-2.780;2023-02-15T16:50:20;16.80;;;12.88;;
47455;SDS011;33202;48.512;-2.780;2023-02-15T16:52:47;21.00;;;12.23;;
47455;SDS011;33202;48.512;-2.780;2023-02-15T16:55:23;17.83;;;12.33;;
47455;SDS011;33202;48.512;-2.780;2023-02-15T16:57:50;18.27;;;12.55;;
47455;SDS011;33202;48.512;-2.780;2023-02-15T17:00:20;19.70;;;12.73;;
47455;SDS011;33202;48.512;-2.780;2023-02-15T17:05:20;17.45;;;12.55;;
47455;SDS011;33202;48.512;-2.780;2023-02-15T17:08:04;17.02;;;12.23;;
47455;SDS011;33202;48.512;-2.780;2023-02-15T17:10:36;19.80;;;12.18;;
47455;SDS011;33202;48.512;-2.780;2023-02-15T17:13:16;19.25;;;12.18;;
47455;SDS011;33202;48.512;-2.780;2023-02-15T17:15:43;18.55;;;12.05;;
47455;SDS011;33202;48.512;-2.780;2023-02-15T17:18:17;15.35;;;11.70;;
47455;SDS011;33202;48.512;-2.780;2023-02-15T17:20:44;31.98;;;12.20;;
47455;SDS011;33202;48.512;-2.780;2023-02-15T17:23:21;21.90;;;11.65;;
47455;SDS011;33202;48.512;-2.780;2023-02-15T17:25:48;17.15;;;10.50;;
47455;SDS011;33202;48.512;-2.780;2023-02-15T17:28:17;19.58;;;12.18;;